sensor_id;sensor_type;location;lat;lon;timestamp;temperature;humidity
6986;DHT22;3533;51.246;6.850;2022-10-18T00:01:11;21.80;48.80
6986;DHT22;3533;51.246;6.850;2022-10-18T00:03:37;21.80;48.80
6986;DHT22;3533;51.246;6.850;2022-10-18T00:06:04;21.80;48.80
6986;DHT22;3533;51.246;6.850;2022-10-18T00:08:30;21.80;48.90
6986;DHT22;3533;51.246;6.850;2022-10-18T00:10:56;21.80;48.80
6986;DHT22;3533;51.246;6.850;2022-10-18T00:13:22;21.80;48.80
6986;DHT22;3533;51.246;6.850;2022-10-18T00:15:50;21.80;48.80
6986;DHT22;3533;51.246;6.850;2022-10-18T00:18:16;21.80;48.80
6986;DHT22;3533;51.246;6.850;2022-10-18T00:20:42;21.80;48.80
6986;DHT22;3533;51.246;6.850;2022-10-18T00:23:07;21.80;48.80
6986;DHT22;3533;51.246;6.850;2022-10-18T00:25:33;21.80;48.80
6986;DHT22;3533;51.246;6.850;2022-10-18T00:27:58;21.80;48.80
6986;DHT22;3533;51.246;6.850;2022-10-18T00:30:24;21.80;48.80
6986;DHT22;3533;51.246;6.850;2022-10-18T00:32:50;21.80;48.80
6986;DHT22;3533;51.246;6.850;2022-10-18T00:35:15;21.80;48.80
6986;DHT22;3533;51.246;6.850;2022-10-18T00:37:41;21.80;48.80
6986;DHT22;3533;51.246;6.850;2022-10-18T00:40:07;21.80;48.80
6986;DHT22;3533;51.246;6.850;2022-10-18T00:42:36;21.80;48.80
6986;DHT22;3533;51.246;6.850;2022-10-18T00:45:11;21.80;48.80
6986;DHT22;3533;51.246;6.850;2022-10-18T00:47:38;21.80;48.80
6986;DHT22;3533;51.246;6.850;2022-10-18T00:50:06;21.80;48.80
6986;DHT22;3533;51.246;6.850;2022-10-18T00:52:37;21.80;48.80
6986;DHT22;3533;51.246;6.850;2022-10-18T00:55:04;21.80;48.80
6986;DHT22;3533;51.246;6.850;2022-10-18T00:57:31;21.80;48.80
6986;DHT22;3533;51.246;6.850;2022-10-18T00:59:57;21.80;48.80
6986;DHT22;3533;51.246;6.850;2022-10-18T01:02:23;21.80;48.80
6986;DHT22;3533;51.246;6.850;2022-10-18T01:04:49;21.80;48.80
6986;DHT22;3533;51.246;6.850;2022-10-18T01:10:00;21.80;48.80
6986;DHT22;3533;51.246;6.850;2022-10-18T01:12:55;21.80;48.80
6986;DHT22;3533;51.246;6.850;2022-10-18T01:15:30;21.80;48.80
6986;DHT22;3533;51.246;6.850;2022-10-18T01:21:03;21.80;48.80
6986;DHT22;3533;51.246;6.850;2022-10-18T01:24:26;21.80;48.80
6986;DHT22;3533;51.246;6.850;2022-10-18T01:27:15;21.80;48.80
6986;DHT22;3533;51.246;6.850;2022-10-18T01:32:59;21.70;48.80
6986;DHT22;3533;51.246;6.850;2022-10-18T01:35:35;21.70;48.90
6986;DHT22;3533;51.246;6.850;2022-10-18T01:38:04;21.70;48.80
6986;DHT22;3533;51.246;6.850;2022-10-18T01:40:32;21.70;48.80
6986;DHT22;3533;51.246;6.850;2022-10-18T01:42:59;21.80;48.90
6986;DHT22;3533;51.246;6.850;2022-10-18T01:45:26;21.70;48.80
6986;DHT22;3533;51.246;6.850;2022-10-18T01:47:53;21.70;48.90
6986;DHT22;3533;51.246;6.850;2022-10-18T01:50:30;21.70;48.80
6986;DHT22;3533;51.246;6.850;2022-10-18T01:52:57;21.70;48.80
6986;DHT22;3533;51.246;6.850;2022-10-18T01:55:45;21.70;48.80
6986;DHT22;3533;51.246;6.850;2022-10-18T01:58:27;21.70;48.80
6986;DHT22;3533;51.246;6.850;2022-10-18T02:01:05;21.70;48.80
6986;DHT22;3533;51.246;6.850;2022-10-18T02:03:33;21.70;48.80
6986;DHT22;3533;51.246;6.850;2022-10-18T02:08:45;21.70;48.80
6986;DHT22;3533;51.246;6.850;2022-10-18T02:11:15;21.70;48.80
6986;DHT22;3533;51.246;6.850;2022-10-18T02:13:52;21.70;48.90
6986;DHT22;3533;51.246;6.850;2022-10-18T02:16:30;21.70;48.90
6986;DHT22;3533;51.246;6.850;2022-10-18T02:21:37;21.70;48.80
6986;DHT22;3533;51.246;6.850;2022-10-18T02:24:06;21.70;48.80
6986;DHT22;3533;51.246;6.850;2022-10-18T02:26:32;21.70;48.90
6986;DHT22;3533;51.246;6.850;2022-10-18T02:28:58;21.70;48.90
6986;DHT22;3533;51.246;6.850;2022-10-18T02:31:48;21.70;48.90
6986;DHT22;3533;51.246;6.850;2022-10-18T02:34:54;21.70;48.90
6986;DHT22;3533;51.246;6.850;2022-10-18T02:37:22;21.70;48.80
6986;DHT22;3533;51.246;6.850;2022-10-18T02:39:50;21.70;48.90
6986;DHT22;3533;51.246;6.850;2022-10-18T02:42:15;21.70;48.90
6986;DHT22;3533;51.246;6.850;2022-10-18T02:44:41;21.70;49.70
6986;DHT22;3533;51.246;6.850;2022-10-18T02:47:08;21.70;48.90
6986;DHT22;3533;51.246;6.850;2022-10-18T02:49:35;21.70;48.90
6986;DHT22;3533;51.246;6.850;2022-10-18T02:52:00;21.70;48.90
6986;DHT22;3533;51.246;6.850;2022-10-18T02:54:26;21.70;48.90
6986;DHT22;3533;51.246;6.850;2022-10-18T02:56:51;21.70;48.90
6986;DHT22;3533;51.246;6.850;2022-10-18T02:59:17;21.70;48.90
6986;DHT22;3533;51.246;6.850;2022-10-18T03:01:42;21.70;48.90
6986;DHT22;3533;51.246;6.850;2022-10-18T03:04:08;21.70;48.90
6986;DHT22;3533;51.246;6.850;2022-10-18T03:06:34;21.70;48.90
6986;DHT22;3533;51.246;6.850;2022-10-18T03:09:02;21.70;48.90
6986;DHT22;3533;51.246;6.850;2022-10-18T03:11:27;21.70;48.90
6986;DHT22;3533;51.246;6.850;2022-10-18T03:13:53;21.70;48.90
6986;DHT22;3533;51.246;6.850;2022-10-18T03:16:18;21.70;48.90
6986;DHT22;3533;51.246;6.850;2022-10-18T03:18:44;21.70;48.90
6986;DHT22;3533;51.246;6.850;2022-10-18T03:21:10;21.70;48.90
6986;DHT22;3533;51.246;6.850;2022-10-18T03:23:35;21.70;48.90
6986;DHT22;3533;51.246;6.850;2022-10-18T03:26:01;21.70;48.90
6986;DHT22;3533;51.246;6.850;2022-10-18T03:28:27;21.70;48.90
6986;DHT22;3533;51.246;6.850;2022-10-18T03:30:53;21.70;48.90
6986;DHT22;3533;51.246;6.850;2022-10-18T03:33:23;21.70;48.90
6986;DHT22;3533;51.246;6.850;2022-10-18T03:35:48;21.70;48.90
6986;DHT22;3533;51.246;6.850;2022-10-18T03:38:14;21.70;48.90
6986;DHT22;3533;51.246;6.850;2022-10-18T03:40:39;21.70;48.90
6986;DHT22;3533;51.246;6.850;2022-10-18T03:43:05;21.70;48.90
6986;DHT22;3533;51.246;6.850;2022-10-18T03:45:30;21.70;48.90
6986;DHT22;3533;51.246;6.850;2022-10-18T03:47:56;21.70;48.90
6986;DHT22;3533;51.246;6.850;2022-10-18T03:50:21;21.70;48.90
6986;DHT22;3533;51.246;6.850;2022-10-18T03:52:47;21.70;48.90
6986;DHT22;3533;51.246;6.850;2022-10-18T03:55:12;21.70;48.90
6986;DHT22;3533;51.246;6.850;2022-10-18T03:57:38;21.70;48.90
6986;DHT22;3533;51.246;6.850;2022-10-18T04:00:04;21.70;48.90
6986;DHT22;3533;51.246;6.850;2022-10-18T04:02:30;21.70;48.90
6986;DHT22;3533;51.246;6.850;2022-10-18T04:04:55;21.70;48.90
6986;DHT22;3533;51.246;6.850;2022-10-18T04:07:23;21.70;48.90
6986;DHT22;3533;51.246;6.850;2022-10-18T04:09:48;21.70;48.90
6986;DHT22;3533;51.246;6.850;2022-10-18T04:12:13;21.70;48.90
6986;DHT22;3533;51.246;6.850;2022-10-18T04:14:39;21.70;48.90
6986;DHT22;3533;51.246;6.850;2022-10-18T04:17:05;21.70;49.00
6986;DHT22;3533;51.246;6.850;2022-10-18T04:19:30;21.70;48.90
6986;DHT22;3533;51.246;6.850;2022-10-18T04:21:56;21.70;48.90
6986;DHT22;3533;51.246;6.850;2022-10-18T04:24:21;21.70;48.90
6986;DHT22;3533;51.246;6.850;2022-10-18T04:26:47;21.70;48.90
6986;DHT22;3533;51.246;6.850;2022-10-18T04:29:12;21.70;48.90
6986;DHT22;3533;51.246;6.850;2022-10-18T04:31:38;21.70;48.90
6986;DHT22;3533;51.246;6.850;2022-10-18T04:34:03;21.70;48.90
6986;DHT22;3533;51.246;6.850;2022-10-18T04:36:30;21.70;48.80
6986;DHT22;3533;51.246;6.850;2022-10-18T04:38:55;21.70;48.80
6986;DHT22;3533;51.246;6.850;2022-10-18T04:41:21;21.70;48.80
6986;DHT22;3533;51.246;6.850;2022-10-18T04:43:47;21.80;48.80
6986;DHT22;3533;51.246;6.850;2022-10-18T04:46:13;21.80;48.70
6986;DHT22;3533;51.246;6.850;2022-10-18T04:48:38;21.80;48.70
6986;DHT22;3533;51.246;6.850;2022-10-18T04:51:04;21.80;48.70
6986;DHT22;3533;51.246;6.850;2022-10-18T04:53:30;21.80;48.70
6986;DHT22;3533;51.246;6.850;2022-10-18T04:55:55;21.80;48.70
6986;DHT22;3533;51.246;6.850;2022-10-18T04:58:21;21.80;48.70
6986;DHT22;3533;51.246;6.850;2022-10-18T05:00:47;21.80;48.80
6986;DHT22;3533;51.246;6.850;2022-10-18T05:03:14;21.80;48.70
6986;DHT22;3533;51.246;6.850;2022-10-18T05:05:39;21.80;48.70
6986;DHT22;3533;51.246;6.850;2022-10-18T05:08:05;21.80;48.70
6986;DHT22;3533;51.246;6.850;2022-10-18T05:10:31;21.80;48.80
6986;DHT22;3533;51.246;6.850;2022-10-18T05:12:57;21.80;48.80
6986;DHT22;3533;51.246;6.850;2022-10-18T05:15:22;21.80;48.80
6986;DHT22;3533;51.246;6.850;2022-10-18T05:17:48;21.80;48.80
6986;DHT22;3533;51.246;6.850;2022-10-18T05:20:13;21.80;48.80
6986;DHT22;3533;51.246;6.850;2022-10-18T05:22:39;21.80;48.80
6986;DHT22;3533;51.246;6.850;2022-10-18T05:25:05;21.80;48.80
6986;DHT22;3533;51.246;6.850;2022-10-18T05:27:30;21.80;48.80
6986;DHT22;3533;51.246;6.850;2022-10-18T05:29:56;21.80;48.80
6986;DHT22;3533;51.246;6.850;2022-10-18T05:32:21;21.80;48.80
6986;DHT22;3533;51.246;6.850;2022-10-18T05:34:47;21.80;48.80
6986;DHT22;3533;51.246;6.850;2022-10-18T05:37:12;21.70;48.80
6986;DHT22;3533;51.246;6.850;2022-10-18T05:39:38;21.70;48.80
6986;DHT22;3533;51.246;6.850;2022-10-18T05:42:04;21.70;48.80
6986;DHT22;3533;51.246;6.850;2022-10-18T05:44:29;21.80;48.90
6986;DHT22;3533;51.246;6.850;2022-10-18T05:46:55;21.70;48.80
6986;DHT22;3533;51.246;6.850;2022-10-18T05:49:21;21.70;48.80
6986;DHT22;3533;51.246;6.850;2022-10-18T05:51:46;21.70;48.90
6986;DHT22;3533;51.246;6.850;2022-10-18T05:54:12;21.70;48.80
6986;DHT22;3533;51.246;6.850;2022-10-18T05:56:38;21.70;48.80
6986;DHT22;3533;51.246;6.850;2022-10-18T05:59:04;21.70;48.80
6986;DHT22;3533;51.246;6.850;2022-10-18T06:01:39;21.70;48.80
6986;DHT22;3533;51.246;6.850;2022-10-18T06:04:06;21.70;48.80
6986;DHT22;3533;51.246;6.850;2022-10-18T06:06:32;21.70;48.80
6986;DHT22;3533;51.246;6.850;2022-10-18T06:08:58;21.70;48.80
6986;DHT22;3533;51.246;6.850;2022-10-18T06:11:24;21.70;48.80
6986;DHT22;3533;51.246;6.850;2022-10-18T06:13:51;21.70;48.80
6986;DHT22;3533;51.246;6.850;2022-10-18T06:16:19;21.70;48.90
6986;DHT22;3533;51.246;6.850;2022-10-18T06:18:53;21.70;48.90
6986;DHT22;3533;51.246;6.850;2022-10-18T06:21:20;21.70;48.80
6986;DHT22;3533;51.246;6.850;2022-10-18T06:23:54;21.70;48.90
6986;DHT22;3533;51.246;6.850;2022-10-18T06:26:20;21.70;48.90
6986;DHT22;3533;51.246;6.850;2022-10-18T06:28:46;21.70;48.90
6986;DHT22;3533;51.246;6.850;2022-10-18T06:31:13;21.70;48.90
6986;DHT22;3533;51.246;6.850;2022-10-18T06:33:38;21.70;48.90
6986;DHT22;3533;51.246;6.850;2022-10-18T06:36:13;21.70;48.90
6986;DHT22;3533;51.246;6.850;2022-10-18T06:38:39;21.70;48.90
6986;DHT22;3533;51.246;6.850;2022-10-18T06:41:05;21.70;48.90
6986;DHT22;3533;51.246;6.850;2022-10-18T06:43:31;21.70;48.90
6986;DHT22;3533;51.246;6.850;2022-10-18T06:45:59;21.70;48.90
6986;DHT22;3533;51.246;6.850;2022-10-18T06:48:24;21.70;48.90
6986;DHT22;3533;51.246;6.850;2022-10-18T06:50:52;21.70;48.90
6986;DHT22;3533;51.246;6.850;2022-10-18T06:53:17;21.70;48.90
6986;DHT22;3533;51.246;6.850;2022-10-18T06:55:43;21.70;48.90
6986;DHT22;3533;51.246;6.850;2022-10-18T06:58:09;21.70;48.90
6986;DHT22;3533;51.246;6.850;2022-10-18T07:00:35;21.70;48.90
6986;DHT22;3533;51.246;6.850;2022-10-18T07:03:00;21.70;48.90
6986;DHT22;3533;51.246;6.850;2022-10-18T07:05:26;21.70;49.00
6986;DHT22;3533;51.246;6.850;2022-10-18T07:07:52;21.70;49.00
6986;DHT22;3533;51.246;6.850;2022-10-18T07:10:17;21.70;49.00
6986;DHT22;3533;51.246;6.850;2022-10-18T07:12:43;21.70;49.00
6986;DHT22;3533;51.246;6.850;2022-10-18T07:15:09;21.70;49.00
6986;DHT22;3533;51.246;6.850;2022-10-18T07:17:35;21.70;49.00
6986;DHT22;3533;51.246;6.850;2022-10-18T07:20:00;21.70;49.00
6986;DHT22;3533;51.246;6.850;2022-10-18T07:22:28;21.70;49.00
6986;DHT22;3533;51.246;6.850;2022-10-18T07:24:54;21.70;48.90
6986;DHT22;3533;51.246;6.850;2022-10-18T07:27:20;21.70;48.90
6986;DHT22;3533;51.246;6.850;2022-10-18T07:29:45;21.70;49.00
6986;DHT22;3533;51.246;6.850;2022-10-18T07:32:12;21.70;49.00
6986;DHT22;3533;51.246;6.850;2022-10-18T07:34:38;21.70;49.00
6986;DHT22;3533;51.246;6.850;2022-10-18T07:37:04;21.70;49.00
6986;DHT22;3533;51.246;6.850;2022-10-18T07:39:29;21.70;49.00
6986;DHT22;3533;51.246;6.850;2022-10-18T07:41:55;21.70;49.00
6986;DHT22;3533;51.246;6.850;2022-10-18T07:44:20;21.70;49.00
6986;DHT22;3533;51.246;6.850;2022-10-18T07:46:46;21.70;49.00
6986;DHT22;3533;51.246;6.850;2022-10-18T07:49:11;21.70;49.00
6986;DHT22;3533;51.246;6.850;2022-10-18T07:51:37;21.70;49.00
6986;DHT22;3533;51.246;6.850;2022-10-18T07:54:03;21.70;49.00
6986;DHT22;3533;51.246;6.850;2022-10-18T07:56:28;21.70;49.00
6986;DHT22;3533;51.246;6.850;2022-10-18T07:58:55;21.70;49.10
6986;DHT22;3533;51.246;6.850;2022-10-18T08:01:22;21.70;49.00
6986;DHT22;3533;51.246;6.850;2022-10-18T08:03:49;21.70;49.00
6986;DHT22;3533;51.246;6.850;2022-10-18T08:06:16;21.70;49.00
6986;DHT22;3533;51.246;6.850;2022-10-18T08:08:43;21.70;49.00
6986;DHT22;3533;51.246;6.850;2022-10-18T08:11:17;21.70;49.00
6986;DHT22;3533;51.246;6.850;2022-10-18T08:13:43;21.70;49.10
6986;DHT22;3533;51.246;6.850;2022-10-18T08:16:12;21.70;49.00
6986;DHT22;3533;51.246;6.850;2022-10-18T08:18:38;21.70;49.10
6986;DHT22;3533;51.246;6.850;2022-10-18T08:21:06;21.70;49.00
6986;DHT22;3533;51.246;6.850;2022-10-18T08:23:32;21.70;49.80
6986;DHT22;3533;51.246;6.850;2022-10-18T08:26:02;21.70;49.10
6986;DHT22;3533;51.246;6.850;2022-10-18T08:28:28;21.70;49.10
6986;DHT22;3533;51.246;6.850;2022-10-18T08:30:54;21.70;49.80
6986;DHT22;3533;51.246;6.850;2022-10-18T08:33:19;21.70;49.10
6986;DHT22;3533;51.246;6.850;2022-10-18T08:35:56;21.70;49.10
6986;DHT22;3533;51.246;6.850;2022-10-18T08:38:22;21.70;49.10
6986;DHT22;3533;51.246;6.850;2022-10-18T08:40:48;21.70;49.10
6986;DHT22;3533;51.246;6.850;2022-10-18T08:43:24;21.70;49.10
6986;DHT22;3533;51.246;6.850;2022-10-18T08:45:52;21.70;49.10
6986;DHT22;3533;51.246;6.850;2022-10-18T08:50:56;21.70;49.10
6986;DHT22;3533;51.246;6.850;2022-10-18T08:55:56;21.70;49.20
6986;DHT22;3533;51.246;6.850;2022-10-18T08:58:28;21.70;49.20
6986;DHT22;3533;51.246;6.850;2022-10-18T09:09:41;21.70;49.10
6986;DHT22;3533;51.246;6.850;2022-10-18T09:17:58;21.70;49.10
6986;DHT22;3533;51.246;6.850;2022-10-18T09:20:36;21.70;49.20
6986;DHT22;3533;51.246;6.850;2022-10-18T09:23:20;21.70;49.20
6986;DHT22;3533;51.246;6.850;2022-10-18T09:25:52;21.70;49.20
6986;DHT22;3533;51.246;6.850;2022-10-18T09:34:11;21.70;49.20
6986;DHT22;3533;51.246;6.850;2022-10-18T09:36:38;21.70;49.10
6986;DHT22;3533;51.246;6.850;2022-10-18T09:39:10;21.70;49.20
6986;DHT22;3533;51.246;6.850;2022-10-18T09:41:40;21.70;49.20
6986;DHT22;3533;51.246;6.850;2022-10-18T09:44:17;21.70;49.30
6986;DHT22;3533;51.246;6.850;2022-10-18T09:46:48;21.70;49.20
6986;DHT22;3533;51.246;6.850;2022-10-18T09:49:18;21.70;49.20
6986;DHT22;3533;51.246;6.850;2022-10-18T09:51:47;21.70;49.20
6986;DHT22;3533;51.246;6.850;2022-10-18T09:54:36;21.70;49.20
6986;DHT22;3533;51.246;6.850;2022-10-18T09:57:16;21.70;49.20
6986;DHT22;3533;51.246;6.850;2022-10-18T09:59:49;21.70;49.10
6986;DHT22;3533;51.246;6.850;2022-10-18T10:02:23;21.70;49.20
6986;DHT22;3533;51.246;6.850;2022-10-18T10:04:50;21.70;49.20
6986;DHT22;3533;51.246;6.850;2022-10-18T10:07:23;21.70;49.20
6986;DHT22;3533;51.246;6.850;2022-10-18T10:10:05;21.70;49.10
6986;DHT22;3533;51.246;6.850;2022-10-18T10:12:34;21.70;49.10
6986;DHT22;3533;51.246;6.850;2022-10-18T10:15:23;21.70;49.20
6986;DHT22;3533;51.246;6.850;2022-10-18T10:17:54;21.70;49.20
6986;DHT22;3533;51.246;6.850;2022-10-18T10:20:23;21.70;49.20
6986;DHT22;3533;51.246;6.850;2022-10-18T10:22:50;21.70;49.20
6986;DHT22;3533;51.246;6.850;2022-10-18T10:25:24;21.70;49.20
6986;DHT22;3533;51.246;6.850;2022-10-18T10:27:52;21.70;49.20
6986;DHT22;3533;51.246;6.850;2022-10-18T10:30:30;21.70;49.20
6986;DHT22;3533;51.246;6.850;2022-10-18T10:32:56;21.70;49.20
6986;DHT22;3533;51.246;6.850;2022-10-18T10:35:38;21.70;49.20
6986;DHT22;3533;51.246;6.850;2022-10-18T10:38:04;21.70;49.20
6986;DHT22;3533;51.246;6.850;2022-10-18T10:40:32;21.70;49.20
6986;DHT22;3533;51.246;6.850;2022-10-18T10:43:13;21.70;49.20
6986;DHT22;3533;51.246;6.850;2022-10-18T10:45:56;21.70;49.20
6986;DHT22;3533;51.246;6.850;2022-10-18T10:48:23;21.70;49.20
6986;DHT22;3533;51.246;6.850;2022-10-18T10:50:53;21.70;49.20
6986;DHT22;3533;51.246;6.850;2022-10-18T10:53:27;21.70;49.60
6986;DHT22;3533;51.246;6.850;2022-10-18T10:55:55;21.70;49.20
6986;DHT22;3533;51.246;6.850;2022-10-18T10:58:22;21.70;49.20
6986;DHT22;3533;51.246;6.850;2022-10-18T11:00:48;21.70;49.20
6986;DHT22;3533;51.246;6.850;2022-10-18T11:03:19;21.70;49.20
6986;DHT22;3533;51.246;6.850;2022-10-18T11:05:47;21.70;49.20
6986;DHT22;3533;51.246;6.850;2022-10-18T11:08:19;21.70;49.20
6986;DHT22;3533;51.246;6.850;2022-10-18T11:11:11;21.70;49.20
6986;DHT22;3533;51.246;6.850;2022-10-18T11:13:49;21.70;49.20
6986;DHT22;3533;51.246;6.850;2022-10-18T11:16:41;21.70;49.20
6986;DHT22;3533;51.246;6.850;2022-10-18T11:19:54;21.70;49.20
6986;DHT22;3533;51.246;6.850;2022-10-18T11:22:28;21.70;49.20
6986;DHT22;3533;51.246;6.850;2022-10-18T11:24:54;21.70;49.30
6986;DHT22;3533;51.246;6.850;2022-10-18T11:27:23;21.70;49.20
6986;DHT22;3533;51.246;6.850;2022-10-18T11:30:02;21.70;49.20
6986;DHT22;3533;51.246;6.850;2022-10-18T11:40:47;21.70;49.20
6986;DHT22;3533;51.246;6.850;2022-10-18T11:43:31;21.70;49.20
6986;DHT22;3533;51.246;6.850;2022-10-18T11:48:37;21.70;49.20
6986;DHT22;3533;51.246;6.850;2022-10-18T11:51:28;21.70;49.30
6986;DHT22;3533;51.246;6.850;2022-10-18T11:56:55;21.70;49.20
6986;DHT22;3533;51.246;6.850;2022-10-18T12:05:31;21.70;49.20
6986;DHT22;3533;51.246;6.850;2022-10-18T12:08:15;21.70;49.30
6986;DHT22;3533;51.246;6.850;2022-10-18T12:10:46;21.70;49.30
6986;DHT22;3533;51.246;6.850;2022-10-18T12:13:20;21.70;49.20
6986;DHT22;3533;51.246;6.850;2022-10-18T12:15:47;21.70;49.20
6986;DHT22;3533;51.246;6.850;2022-10-18T12:18:16;21.70;49.20
6986;DHT22;3533;51.246;6.850;2022-10-18T12:20:54;21.70;49.50
6986;DHT22;3533;51.246;6.850;2022-10-18T12:26:06;21.70;49.20
6986;DHT22;3533;51.246;6.850;2022-10-18T12:33:55;21.70;49.10
6986;DHT22;3533;51.246;6.850;2022-10-18T12:39:33;21.70;49.10
6986;DHT22;3533;51.246;6.850;2022-10-18T12:42:02;21.70;49.20
6986;DHT22;3533;51.246;6.850;2022-10-18T12:44:30;21.70;50.00
6986;DHT22;3533;51.246;6.850;2022-10-18T12:46:59;21.70;49.20
6986;DHT22;3533;51.246;6.850;2022-10-18T12:49:36;21.70;49.20
6986;DHT22;3533;51.246;6.850;2022-10-18T12:52:17;21.70;49.20
6986;DHT22;3533;51.246;6.850;2022-10-18T13:19:38;21.80;49.20
6986;DHT22;3533;51.246;6.850;2022-10-18T13:25:28;21.80;49.20
6986;DHT22;3533;51.246;6.850;2022-10-18T13:33:30;21.80;49.20
6986;DHT22;3533;51.246;6.850;2022-10-18T13:38:35;21.80;49.20
6986;DHT22;3533;51.246;6.850;2022-10-18T13:46:18;21.80;49.10
6986;DHT22;3533;51.246;6.850;2022-10-18T13:48:49;21.80;49.20
6986;DHT22;3533;51.246;6.850;2022-10-18T13:54:02;21.80;49.10
6986;DHT22;3533;51.246;6.850;2022-10-18T13:57:26;21.80;49.20
6986;DHT22;3533;51.246;6.850;2022-10-18T14:02:39;21.80;49.10
6986;DHT22;3533;51.246;6.850;2022-10-18T14:05:48;21.80;49.10
6986;DHT22;3533;51.246;6.850;2022-10-18T14:08:16;21.80;49.10
6986;DHT22;3533;51.246;6.850;2022-10-18T14:11:04;21.80;49.20
6986;DHT22;3533;51.246;6.850;2022-10-18T14:13:54;21.80;49.10
6986;DHT22;3533;51.246;6.850;2022-10-18T14:19:19;21.80;49.10
6986;DHT22;3533;51.246;6.850;2022-10-18T14:22:10;21.80;49.10
6986;DHT22;3533;51.246;6.850;2022-10-18T14:24:39;21.80;49.10
6986;DHT22;3533;51.246;6.850;2022-10-18T14:27:11;21.80;49.10
6986;DHT22;3533;51.246;6.850;2022-10-18T14:29:39;21.80;49.10
6986;DHT22;3533;51.246;6.850;2022-10-18T14:32:09;21.80;49.10
6986;DHT22;3533;51.246;6.850;2022-10-18T14:34:34;21.80;49.00
6986;DHT22;3533;51.246;6.850;2022-10-18T14:37:00;21.80;49.00
6986;DHT22;3533;51.246;6.850;2022-10-18T14:39:26;21.80;49.10
6986;DHT22;3533;51.246;6.850;2022-10-18T14:41:56;21.80;49.10
6986;DHT22;3533;51.246;6.850;2022-10-18T14:44:31;21.80;49.00
6986;DHT22;3533;51.246;6.850;2022-10-18T14:46:58;21.80;49.00
6986;DHT22;3533;51.246;6.850;2022-10-18T14:49:24;21.80;49.00
6986;DHT22;3533;51.246;6.850;2022-10-18T14:51:55;21.80;49.00
6986;DHT22;3533;51.246;6.850;2022-10-18T14:54:27;21.80;49.00
6986;DHT22;3533;51.246;6.850;2022-10-18T14:56:54;21.80;49.00
6986;DHT22;3533;51.246;6.850;2022-10-18T14:59:23;21.80;49.00
6986;DHT22;3533;51.246;6.850;2022-10-18T15:02:11;21.80;49.00
6986;DHT22;3533;51.246;6.850;2022-10-18T15:04:38;21.80;49.00
6986;DHT22;3533;51.246;6.850;2022-10-18T15:07:05;21.80;49.00
6986;DHT22;3533;51.246;6.850;2022-10-18T15:09:33;21.80;49.00
6986;DHT22;3533;51.246;6.850;2022-10-18T15:12:02;21.80;49.00
6986;DHT22;3533;51.246;6.850;2022-10-18T15:14:29;21.80;49.00
6986;DHT22;3533;51.246;6.850;2022-10-18T15:17:06;21.80;49.10
6986;DHT22;3533;51.246;6.850;2022-10-18T15:19:35;21.80;49.00
6986;DHT22;3533;51.246;6.850;2022-10-18T15:22:03;21.80;49.00
6986;DHT22;3533;51.246;6.850;2022-10-18T15:24:39;21.80;48.90
6986;DHT22;3533;51.246;6.850;2022-10-18T15:27:19;21.80;48.90
6986;DHT22;3533;51.246;6.850;2022-10-18T15:29:46;21.80;48.90
6986;DHT22;3533;51.246;6.850;2022-10-18T15:32:17;21.80;49.00
6986;DHT22;3533;51.246;6.850;2022-10-18T15:34:44;21.80;49.00
6986;DHT22;3533;51.246;6.850;2022-10-18T15:37:37;21.80;49.00
6986;DHT22;3533;51.246;6.850;2022-10-18T15:42:53;21.80;48.90
6986;DHT22;3533;51.246;6.850;2022-10-18T15:48:15;21.80;48.90
6986;DHT22;3533;51.246;6.850;2022-10-18T15:56:06;21.80;48.90
6986;DHT22;3533;51.246;6.850;2022-10-18T15:58:45;21.80;48.90
6986;DHT22;3533;51.246;6.850;2022-10-18T16:03:40;21.80;48.80
6986;DHT22;3533;51.246;6.850;2022-10-18T16:06:07;21.80;48.80
6986;DHT22;3533;51.246;6.850;2022-10-18T16:08:37;21.80;48.80
6986;DHT22;3533;51.246;6.850;2022-10-18T16:11:06;21.80;49.50
6986;DHT22;3533;51.246;6.850;2022-10-18T16:13:32;21.80;48.80
6986;DHT22;3533;51.246;6.850;2022-10-18T16:15:58;21.80;48.80
6986;DHT22;3533;51.246;6.850;2022-10-18T16:18:25;21.90;48.80
6986;DHT22;3533;51.246;6.850;2022-10-18T16:20:51;21.90;48.80
6986;DHT22;3533;51.246;6.850;2022-10-18T16:23:23;21.90;48.70
6986;DHT22;3533;51.246;6.850;2022-10-18T16:25:49;21.90;48.80
6986;DHT22;3533;51.246;6.850;2022-10-18T16:28:18;21.90;48.70
6986;DHT22;3533;51.246;6.850;2022-10-18T16:30:49;21.90;48.70
6986;DHT22;3533;51.246;6.850;2022-10-18T16:33:16;21.90;48.80
6986;DHT22;3533;51.246;6.850;2022-10-18T16:35:42;21.90;48.70
6986;DHT22;3533;51.246;6.850;2022-10-18T16:38:34;21.90;48.80
6986;DHT22;3533;51.246;6.850;2022-10-18T16:41:04;21.90;48.70
6986;DHT22;3533;51.246;6.850;2022-10-18T16:43:31;21.90;48.70
6986;DHT22;3533;51.246;6.850;2022-10-18T16:45:56;21.90;48.70
6986;DHT22;3533;51.246;6.850;2022-10-18T16:48:23;21.90;48.70
6986;DHT22;3533;51.246;6.850;2022-10-18T16:50:52;21.90;48.70
6986;DHT22;3533;51.246;6.850;2022-10-18T16:53:18;21.90;48.70
6986;DHT22;3533;51.246;6.850;2022-10-18T16:55:51;21.90;48.70
6986;DHT22;3533;51.246;6.850;2022-10-18T16:58:17;21.90;48.70
6986;DHT22;3533;51.246;6.850;2022-10-18T17:00:43;21.90;48.70
6986;DHT22;3533;51.246;6.850;2022-10-18T17:03:11;21.90;48.70
6986;DHT22;3533;51.246;6.850;2022-10-18T17:05:37;21.90;48.70
6986;DHT22;3533;51.246;6.850;2022-10-18T17:08:02;21.90;48.70
6986;DHT22;3533;51.246;6.850;2022-10-18T17:10:28;21.90;48.70
6986;DHT22;3533;51.246;6.850;2022-10-18T17:12:54;21.90;48.70
6986;DHT22;3533;51.246;6.850;2022-10-18T17:15:19;21.90;48.70
6986;DHT22;3533;51.246;6.850;2022-10-18T17:17:45;21.90;48.70
6986;DHT22;3533;51.246;6.850;2022-10-18T17:20:22;21.90;48.70
6986;DHT22;3533;51.246;6.850;2022-10-18T17:22:49;21.90;48.70
6986;DHT22;3533;51.246;6.850;2022-10-18T17:25:15;21.90;48.70
6986;DHT22;3533;51.246;6.850;2022-10-18T17:27:41;21.90;48.70
6986;DHT22;3533;51.246;6.850;2022-10-18T17:30:08;21.90;48.70
6986;DHT22;3533;51.246;6.850;2022-10-18T17:32:34;21.90;48.70
6986;DHT22;3533;51.246;6.850;2022-10-18T17:34:59;21.90;48.70
6986;DHT22;3533;51.246;6.850;2022-10-18T17:37:25;21.90;48.70
6986;DHT22;3533;51.246;6.850;2022-10-18T17:39:50;21.90;48.70
6986;DHT22;3533;51.246;6.850;2022-10-18T17:42:16;21.90;48.70
6986;DHT22;3533;51.246;6.850;2022-10-18T17:44:42;21.90;48.70
6986;DHT22;3533;51.246;6.850;2022-10-18T17:47:08;21.90;48.60
6986;DHT22;3533;51.246;6.850;2022-10-18T17:49:34;21.90;48.70
6986;DHT22;3533;51.246;6.850;2022-10-18T17:51:59;21.90;48.70
6986;DHT22;3533;51.246;6.850;2022-10-18T17:54:25;21.90;48.60
6986;DHT22;3533;51.246;6.850;2022-10-18T17:56:50;21.90;48.60
6986;DHT22;3533;51.246;6.850;2022-10-18T17:59:16;21.90;48.60
6986;DHT22;3533;51.246;6.850;2022-10-18T18:01:42;21.90;49.40
6986;DHT22;3533;51.246;6.850;2022-10-18T18:04:07;21.90;48.60
6986;DHT22;3533;51.246;6.850;2022-10-18T18:06:41;21.90;48.60
6986;DHT22;3533;51.246;6.850;2022-10-18T18:09:11;21.90;48.60
6986;DHT22;3533;51.246;6.850;2022-10-18T18:11:38;22.00;48.60
6986;DHT22;3533;51.246;6.850;2022-10-18T18:14:04;22.00;48.60
6986;DHT22;3533;51.246;6.850;2022-10-18T18:16:42;22.00;48.60
6986;DHT22;3533;51.246;6.850;2022-10-18T18:19:08;22.00;48.60
6986;DHT22;3533;51.246;6.850;2022-10-18T18:21:34;22.00;48.60
6986;DHT22;3533;51.246;6.850;2022-10-18T18:23:59;22.00;48.60
6986;DHT22;3533;51.246;6.850;2022-10-18T18:26:25;22.00;48.50
6986;DHT22;3533;51.246;6.850;2022-10-18T18:28:52;22.00;48.50
6986;DHT22;3533;51.246;6.850;2022-10-18T18:31:21;22.00;48.50